sensor_id;sensor_type;location;lat;lon;timestamp;temperature;humidity
13694;DHT22;6919;52.344;14.518;2022-11-03T00:02:04;6.70;54.50
13694;DHT22;6919;52.344;14.518;2022-11-03T00:04:32;6.70;64.80
13694;DHT22;6919;52.344;14.518;2022-11-03T00:07:03;6.60;72.90
13694;DHT22;6919;52.344;14.518;2022-11-03T00:09:31;6.60;92.60
13694;DHT22;6919;52.344;14.518;2022-11-03T00:11:59;6.70;99.00
13694;DHT22;6919;52.344;14.518;2022-11-03T00:14:30;6.50;99.70
13694;DHT22;6919;52.344;14.518;2022-11-03T00:16:58;6.50;98.20
13694;DHT22;6919;52.344;14.518;2022-11-03T00:19:26;6.50;99.90
13694;DHT22;6919;52.344;14.518;2022-11-03T00:21:54;6.50;99.90
13694;DHT22;6919;52.344;14.518;2022-11-03T00:24:24;6.50;99.90
13694;DHT22;6919;52.344;14.518;2022-11-03T00:26:52;6.40;92.10
13694;DHT22;6919;52.344;14.518;2022-11-03T00:29:20;6.40;94.00
13694;DHT22;6919;52.344;14.518;2022-11-03T00:31:49;6.40;99.90
13694;DHT22;6919;52.344;14.518;2022-11-03T00:34:17;6.40;99.90
13694;DHT22;6919;52.344;14.518;2022-11-03T00:36:45;6.40;99.90
13694;DHT22;6919;52.344;14.518;2022-11-03T00:39:13;6.30;99.90
13694;DHT22;6919;52.344;14.518;2022-11-03T00:41:42;6.30;99.90
13694;DHT22;6919;52.344;14.518;2022-11-03T00:44:10;6.20;99.90
13694;DHT22;6919;52.344;14.518;2022-11-03T00:46:39;6.20;99.90
13694;DHT22;6919;52.344;14.518;2022-11-03T00:49:08;6.20;99.90
13694;DHT22;6919;52.344;14.518;2022-11-03T00:51:36;6.10;99.90
13694;DHT22;6919;52.344;14.518;2022-11-03T00:54:05;6.10;99.90
13694;DHT22;6919;52.344;14.518;2022-11-03T00:56:35;6.00;99.90
13694;DHT22;6919;52.344;14.518;2022-11-03T00:59:05;6.00;99.90
13694;DHT22;6919;52.344;14.518;2022-11-03T01:01:36;6.00;99.90
13694;DHT22;6919;52.344;14.518;2022-11-03T01:04:15;6.00;99.90
13694;DHT22;6919;52.344;14.518;2022-11-03T01:07:02;6.00;99.90
13694;DHT22;6919;52.344;14.518;2022-11-03T01:09:34;6.00;99.90
13694;DHT22;6919;52.344;14.518;2022-11-03T01:12:05;6.00;99.90
13694;DHT22;6919;52.344;14.518;2022-11-03T01:14:37;6.00;99.90
13694;DHT22;6919;52.344;14.518;2022-11-03T01:17:09;5.90;99.90
13694;DHT22;6919;52.344;14.518;2022-11-03T01:19:39;5.90;99.90
13694;DHT22;6919;52.344;14.518;2022-11-03T01:22:09;6.10;99.90
13694;DHT22;6919;52.344;14.518;2022-11-03T01:24:38;5.80;99.90
13694;DHT22;6919;52.344;14.518;2022-11-03T01:27:08;5.80;99.90
13694;DHT22;6919;52.344;14.518;2022-11-03T01:29:38;5.70;99.90
13694;DHT22;6919;52.344;14.518;2022-11-03T01:32:07;5.60;99.90
13694;DHT22;6919;52.344;14.518;2022-11-03T01:34:35;5.50;99.90
13694;DHT22;6919;52.344;14.518;2022-11-03T01:37:07;5.50;99.90
13694;DHT22;6919;52.344;14.518;2022-11-03T01:39:35;5.50;99.90
13694;DHT22;6919;52.344;14.518;2022-11-03T01:42:03;5.40;99.90
13694;DHT22;6919;52.344;14.518;2022-11-03T01:44:34;5.30;99.90
13694;DHT22;6919;52.344;14.518;2022-11-03T01:47:11;5.30;99.90
13694;DHT22;6919;52.344;14.518;2022-11-03T01:49:49;5.20;99.90
13694;DHT22;6919;52.344;14.518;2022-11-03T01:52:24;5.20;99.90
13694;DHT22;6919;52.344;14.518;2022-11-03T01:54:58;5.20;99.90
13694;DHT22;6919;52.344;14.518;2022-11-03T01:57:33;5.20;99.90
13694;DHT22;6919;52.344;14.518;2022-11-03T02:00:07;5.20;99.90
13694;DHT22;6919;52.344;14.518;2022-11-03T02:02:36;5.20;99.90
13694;DHT22;6919;52.344;14.518;2022-11-03T02:05:06;5.20;99.90
13694;DHT22;6919;52.344;14.518;2022-11-03T02:07:42;5.10;99.90
13694;DHT22;6919;52.344;14.518;2022-11-03T02:10:18;5.00;99.90
13694;DHT22;6919;52.344;14.518;2022-11-03T02:12:47;5.00;99.90
13694;DHT22;6919;52.344;14.518;2022-11-03T02:15:17;5.00;99.90
13694;DHT22;6919;52.344;14.518;2022-11-03T02:17:49;4.90;99.90
13694;DHT22;6919;52.344;14.518;2022-11-03T02:20:24;5.00;99.90
13694;DHT22;6919;52.344;14.518;2022-11-03T02:23:18;5.00;99.90
13694;DHT22;6919;52.344;14.518;2022-11-03T02:25:53;5.00;99.90
13694;DHT22;6919;52.344;14.518;2022-11-03T02:28:25;5.00;99.90
13694;DHT22;6919;52.344;14.518;2022-11-03T02:31:01;4.90;99.90
13694;DHT22;6919;52.344;14.518;2022-11-03T02:33:40;5.00;99.90
13694;DHT22;6919;52.344;14.518;2022-11-03T02:36:18;5.00;99.90
13694;DHT22;6919;52.344;14.518;2022-11-03T02:38:53;5.00;99.90
13694;DHT22;6919;52.344;14.518;2022-11-03T02:41:29;4.90;99.90
13694;DHT22;6919;52.344;14.518;2022-11-03T02:44:00;4.90;99.90
13694;DHT22;6919;52.344;14.518;2022-11-03T02:46:32;4.80;99.90
13694;DHT22;6919;52.344;14.518;2022-11-03T02:49:01;4.80;99.90
13694;DHT22;6919;52.344;14.518;2022-11-03T02:51:30;4.80;99.90
13694;DHT22;6919;52.344;14.518;2022-11-03T02:54:07;4.80;99.90
13694;DHT22;6919;52.344;14.518;2022-11-03T02:56:48;4.80;99.90
13694;DHT22;6919;52.344;14.518;2022-11-03T02:59:24;4.80;99.90
13694;DHT22;6919;52.344;14.518;2022-11-03T03:01:58;4.70;99.90
13694;DHT22;6919;52.344;14.518;2022-11-03T03:04:36;4.70;99.90
13694;DHT22;6919;52.344;14.518;2022-11-03T03:07:08;4.70;99.90
13694;DHT22;6919;52.344;14.518;2022-11-03T03:09:45;4.70;99.90
13694;DHT22;6919;52.344;14.518;2022-11-03T03:12:21;4.60;99.90
13694;DHT22;6919;52.344;14.518;2022-11-03T03:14:53;4.70;99.90
13694;DHT22;6919;52.344;14.518;2022-11-03T03:17:25;4.60;99.90
13694;DHT22;6919;52.344;14.518;2022-11-03T03:20:03;4.70;99.90
13694;DHT22;6919;52.344;14.518;2022-11-03T03:22:41;4.60;99.90
13694;DHT22;6919;52.344;14.518;2022-11-03T03:25:16;4.60;99.90
13694;DHT22;6919;52.344;14.518;2022-11-03T03:27:54;4.50;99.90
13694;DHT22;6919;52.344;14.518;2022-11-03T03:30:30;4.50;99.90
13694;DHT22;6919;52.344;14.518;2022-11-03T03:33:03;4.50;99.90
13694;DHT22;6919;52.344;14.518;2022-11-03T03:35:36;4.40;99.90
13694;DHT22;6919;52.344;14.518;2022-11-03T03:38:15;4.40;99.90
13694;DHT22;6919;52.344;14.518;2022-11-03T03:40:49;4.40;99.90
13694;DHT22;6919;52.344;14.518;2022-11-03T03:43:22;4.40;99.90
13694;DHT22;6919;52.344;14.518;2022-11-03T03:45:55;4.40;99.90
13694;DHT22;6919;52.344;14.518;2022-11-03T03:48:27;4.30;99.90
13694;DHT22;6919;52.344;14.518;2022-11-03T03:50:56;4.30;99.90
13694;DHT22;6919;52.344;14.518;2022-11-03T03:53:28;4.30;99.90
13694;DHT22;6919;52.344;14.518;2022-11-03T03:55:57;4.30;99.90
13694;DHT22;6919;52.344;14.518;2022-11-03T03:58:27;4.30;99.90
13694;DHT22;6919;52.344;14.518;2022-11-03T04:00:55;4.30;99.90
13694;DHT22;6919;52.344;14.518;2022-11-03T04:03:24;4.30;99.90
13694;DHT22;6919;52.344;14.518;2022-11-03T04:05:54;4.40;99.90
13694;DHT22;6919;52.344;14.518;2022-11-03T04:08:22;4.30;99.90
13694;DHT22;6919;52.344;14.518;2022-11-03T04:10:50;4.30;99.90
13694;DHT22;6919;52.344;14.518;2022-11-03T04:13:38;4.30;99.90
13694;DHT22;6919;52.344;14.518;2022-11-03T04:16:23;4.30;99.90
13694;DHT22;6919;52.344;14.518;2022-11-03T04:19:10;4.30;99.90
13694;DHT22;6919;52.344;14.518;2022-11-03T04:21:55;4.30;99.90
13694;DHT22;6919;52.344;14.518;2022-11-03T04:24:41;4.40;99.90
13694;DHT22;6919;52.344;14.518;2022-11-03T04:27:27;4.40;99.90
13694;DHT22;6919;52.344;14.518;2022-11-03T04:30:05;4.40;99.90
13694;DHT22;6919;52.344;14.518;2022-11-03T04:32:37;4.40;99.90
13694;DHT22;6919;52.344;14.518;2022-11-03T04:35:14;4.40;99.90
13694;DHT22;6919;52.344;14.518;2022-11-03T04:37:44;4.50;99.90
13694;DHT22;6919;52.344;14.518;2022-11-03T04:40:18;4.50;99.90
13694;DHT22;6919;52.344;14.518;2022-11-03T04:42:46;4.60;99.90
13694;DHT22;6919;52.344;14.518;2022-11-03T04:45:22;4.70;99.90
13694;DHT22;6919;52.344;14.518;2022-11-03T04:47:52;4.60;99.90
13694;DHT22;6919;52.344;14.518;2022-11-03T04:50:22;4.60;99.90
13694;DHT22;6919;52.344;14.518;2022-11-03T04:52:54;4.60;99.90
13694;DHT22;6919;52.344;14.518;2022-11-03T04:55:25;4.50;99.90
13694;DHT22;6919;52.344;14.518;2022-11-03T04:57:56;4.50;99.90
13694;DHT22;6919;52.344;14.518;2022-11-03T05:00:28;4.50;99.90
13694;DHT22;6919;52.344;14.518;2022-11-03T05:02:56;4.40;99.90
13694;DHT22;6919;52.344;14.518;2022-11-03T05:05:25;4.40;99.90
13694;DHT22;6919;52.344;14.518;2022-11-03T05:07:54;4.40;99.90
13694;DHT22;6919;52.344;14.518;2022-11-03T05:10:27;4.30;99.90
13694;DHT22;6919;52.344;14.518;2022-11-03T05:12:57;4.30;99.90
13694;DHT22;6919;52.344;14.518;2022-11-03T05:15:32;4.20;99.90
13694;DHT22;6919;52.344;14.518;2022-11-03T05:18:15;4.20;99.90
13694;DHT22;6919;52.344;14.518;2022-11-03T05:20:49;4.20;99.90
13694;DHT22;6919;52.344;14.518;2022-11-03T05:23:20;4.20;99.90
13694;DHT22;6919;52.344;14.518;2022-11-03T05:25:51;4.20;99.90
13694;DHT22;6919;52.344;14.518;2022-11-03T05:28:23;4.10;99.90
13694;DHT22;6919;52.344;14.518;2022-11-03T05:30:55;4.20;99.90
13694;DHT22;6919;52.344;14.518;2022-11-03T05:33:28;4.10;99.90
13694;DHT22;6919;52.344;14.518;2022-11-03T05:36:06;4.00;99.90
13694;DHT22;6919;52.344;14.518;2022-11-03T05:38:40;4.00;99.90
13694;DHT22;6919;52.344;14.518;2022-11-03T05:41:13;4.00;99.90
13694;DHT22;6919;52.344;14.518;2022-11-03T05:43:52;3.90;99.90
13694;DHT22;6919;52.344;14.518;2022-11-03T05:46:29;3.90;99.90
13694;DHT22;6919;52.344;14.518;2022-11-03T05:49:01;3.80;99.90
13694;DHT22;6919;52.344;14.518;2022-11-03T05:51:32;3.90;99.90
13694;DHT22;6919;52.344;14.518;2022-11-03T05:54:08;3.90;99.90
13694;DHT22;6919;52.344;14.518;2022-11-03T05:56:46;3.90;99.90
13694;DHT22;6919;52.344;14.518;2022-11-03T05:59:19;3.80;99.90
13694;DHT22;6919;52.344;14.518;2022-11-03T06:01:54;3.90;99.90
13694;DHT22;6919;52.344;14.518;2022-11-03T06:04:31;3.90;99.90
13694;DHT22;6919;52.344;14.518;2022-11-03T06:09:51;4.00;99.90
13694;DHT22;6919;52.344;14.518;2022-11-03T06:12:21;4.00;99.90
13694;DHT22;6919;52.344;14.518;2022-11-03T06:14:51;4.00;99.90
13694;DHT22;6919;52.344;14.518;2022-11-03T06:17:25;4.00;99.90
13694;DHT22;6919;52.344;14.518;2022-11-03T06:19:57;5.30;99.90
13694;DHT22;6919;52.344;14.518;2022-11-03T06:22:30;4.10;99.90
13694;DHT22;6919;52.344;14.518;2022-11-03T06:25:11;4.10;99.90
13694;DHT22;6919;52.344;14.518;2022-11-03T06:27:48;4.10;99.90
13694;DHT22;6919;52.344;14.518;2022-11-03T06:30:20;4.10;99.90
13694;DHT22;6919;52.344;14.518;2022-11-03T06:32:57;4.20;99.90
13694;DHT22;6919;52.344;14.518;2022-11-03T06:35:27;4.20;99.90
13694;DHT22;6919;52.344;14.518;2022-11-03T06:37:55;4.30;99.90
13694;DHT22;6919;52.344;14.518;2022-11-03T06:40:35;4.30;99.90
13694;DHT22;6919;52.344;14.518;2022-11-03T06:43:18;4.50;99.90
13694;DHT22;6919;52.344;14.518;2022-11-03T06:45:51;4.60;99.90
13694;DHT22;6919;52.344;14.518;2022-11-03T06:48:25;4.60;99.90
13694;DHT22;6919;52.344;14.518;2022-11-03T06:50:56;4.60;99.90
13694;DHT22;6919;52.344;14.518;2022-11-03T06:53:28;4.70;99.90
13694;DHT22;6919;52.344;14.518;2022-11-03T06:56:01;4.80;99.90
13694;DHT22;6919;52.344;14.518;2022-11-03T06:58:36;4.80;99.90
13694;DHT22;6919;52.344;14.518;2022-11-03T07:01:13;4.80;99.90
13694;DHT22;6919;52.344;14.518;2022-11-03T07:03:44;4.80;99.90
13694;DHT22;6919;52.344;14.518;2022-11-03T07:06:16;4.90;99.90
13694;DHT22;6919;52.344;14.518;2022-11-03T07:08:50;5.00;99.90
13694;DHT22;6919;52.344;14.518;2022-11-03T07:11:22;4.90;99.90
13694;DHT22;6919;52.344;14.518;2022-11-03T07:13:52;5.00;99.90
13694;DHT22;6919;52.344;14.518;2022-11-03T07:16:27;4.90;99.90
13694;DHT22;6919;52.344;14.518;2022-11-03T07:19:00;5.00;99.90
13694;DHT22;6919;52.344;14.518;2022-11-03T07:21:36;5.00;99.90
13694;DHT22;6919;52.344;14.518;2022-11-03T07:24:15;5.10;99.90
13694;DHT22;6919;52.344;14.518;2022-11-03T07:26:48;5.10;99.90
13694;DHT22;6919;52.344;14.518;2022-11-03T07:29:22;5.10;99.90
13694;DHT22;6919;52.344;14.518;2022-11-03T07:31:56;5.20;99.90
13694;DHT22;6919;52.344;14.518;2022-11-03T07:34:31;5.20;99.90
13694;DHT22;6919;52.344;14.518;2022-11-03T07:36:59;5.40;99.90
13694;DHT22;6919;52.344;14.518;2022-11-03T07:39:33;5.50;99.90
13694;DHT22;6919;52.344;14.518;2022-11-03T07:42:12;5.60;99.90
13694;DHT22;6919;52.344;14.518;2022-11-03T07:44:42;5.70;99.90
13694;DHT22;6919;52.344;14.518;2022-11-03T07:47:13;5.80;99.90
13694;DHT22;6919;52.344;14.518;2022-11-03T07:49:47;5.90;99.90
13694;DHT22;6919;52.344;14.518;2022-11-03T07:52:18;6.00;99.90
13694;DHT22;6919;52.344;14.518;2022-11-03T07:54:49;5.90;99.90
13694;DHT22;6919;52.344;14.518;2022-11-03T07:57:19;5.80;99.90
13694;DHT22;6919;52.344;14.518;2022-11-03T07:59:53;5.80;99.90
13694;DHT22;6919;52.344;14.518;2022-11-03T08:02:30;5.90;99.90
13694;DHT22;6919;52.344;14.518;2022-11-03T08:05:02;6.00;99.90
13694;DHT22;6919;52.344;14.518;2022-11-03T08:07:30;6.10;99.90
13694;DHT22;6919;52.344;14.518;2022-11-03T08:09:59;6.20;99.90
13694;DHT22;6919;52.344;14.518;2022-11-03T08:12:27;6.30;99.90
13694;DHT22;6919;52.344;14.518;2022-11-03T08:14:55;6.40;99.90
13694;DHT22;6919;52.344;14.518;2022-11-03T08:17:23;6.50;99.90
13694;DHT22;6919;52.344;14.518;2022-11-03T08:19:51;6.70;99.90
13694;DHT22;6919;52.344;14.518;2022-11-03T08:22:20;6.70;99.90
13694;DHT22;6919;52.344;14.518;2022-11-03T08:24:51;6.90;99.90
13694;DHT22;6919;52.344;14.518;2022-11-03T08:27:19;7.20;99.90
13694;DHT22;6919;52.344;14.518;2022-11-03T08:29:47;7.20;92.20
13694;DHT22;6919;52.344;14.518;2022-11-03T08:32:15;7.40;63.50
13694;DHT22;6919;52.344;14.518;2022-11-03T08:34:43;7.40;34.90
13694;DHT22;6919;52.344;14.518;2022-11-03T08:37:11;7.60;56.10
13694;DHT22;6919;52.344;14.518;2022-11-03T08:39:41;7.70;58.50
13694;DHT22;6919;52.344;14.518;2022-11-03T08:42:09;7.80;54.60
13694;DHT22;6919;52.344;14.518;2022-11-03T08:44:37;8.00;26.50
13694;DHT22;6919;52.344;14.518;2022-11-03T08:47:05;8.20;1.30
13694;DHT22;6919;52.344;14.518;2022-11-03T08:49:33;8.20;1.00
13694;DHT22;6919;52.344;14.518;2022-11-03T08:52:01;8.40;1.00
13694;DHT22;6919;52.344;14.518;2022-11-03T08:54:30;8.60;1.00
13694;DHT22;6919;52.344;14.518;2022-11-03T08:57:00;8.70;1.00
13694;DHT22;6919;52.344;14.518;2022-11-03T08:59:28;8.90;1.00
13694;DHT22;6919;52.344;14.518;2022-11-03T09:01:56;9.00;1.00
13694;DHT22;6919;52.344;14.518;2022-11-03T09:04:24;9.10;1.00
13694;DHT22;6919;52.344;14.518;2022-11-03T09:06:52;9.10;1.00
13694;DHT22;6919;52.344;14.518;2022-11-03T09:09:20;8.90;1.00
13694;DHT22;6919;52.344;14.518;2022-11-03T09:12:10;9.20;1.00
13694;DHT22;6919;52.344;14.518;2022-11-03T09:14:38;9.00;1.00
13694;DHT22;6919;52.344;14.518;2022-11-03T09:17:06;9.00;1.00
13694;DHT22;6919;52.344;14.518;2022-11-03T09:19:34;9.00;1.00
13694;DHT22;6919;52.344;14.518;2022-11-03T09:22:03;9.10;1.00
13694;DHT22;6919;52.344;14.518;2022-11-03T09:24:31;9.10;1.00
13694;DHT22;6919;52.344;14.518;2022-11-03T09:26:59;9.20;1.00
13694;DHT22;6919;52.344;14.518;2022-11-03T09:29:29;9.40;1.00
13694;DHT22;6919;52.344;14.518;2022-11-03T09:32:17;9.60;1.00
13694;DHT22;6919;52.344;14.518;2022-11-03T09:34:49;9.90;1.00
13694;DHT22;6919;52.344;14.518;2022-11-03T09:37:17;10.20;1.00
13694;DHT22;6919;52.344;14.518;2022-11-03T09:39:45;10.30;1.00
13694;DHT22;6919;52.344;14.518;2022-11-03T09:42:14;10.40;99.90
13694;DHT22;6919;52.344;14.518;2022-11-03T09:44:45;10.50;99.90
13694;DHT22;6919;52.344;14.518;2022-11-03T09:47:19;10.70;99.90
13694;DHT22;6919;52.344;14.518;2022-11-03T09:49:50;10.90;99.90
13694;DHT22;6919;52.344;14.518;2022-11-03T09:52:21;10.90;1.00
13694;DHT22;6919;52.344;14.518;2022-11-03T09:54:52;11.10;1.00
13694;DHT22;6919;52.344;14.518;2022-11-03T09:57:23;11.30;1.00
13694;DHT22;6919;52.344;14.518;2022-11-03T09:59:55;11.40;1.00
13694;DHT22;6919;52.344;14.518;2022-11-03T10:02:25;11.60;99.90
13694;DHT22;6919;52.344;14.518;2022-11-03T10:04:57;11.60;1.00
13694;DHT22;6919;52.344;14.518;2022-11-03T10:07:30;11.70;99.90
13694;DHT22;6919;52.344;14.518;2022-11-03T10:09:58;11.80;99.90
13694;DHT22;6919;52.344;14.518;2022-11-03T10:12:28;12.00;99.90
13694;DHT22;6919;52.344;14.518;2022-11-03T10:15:02;12.00;99.90
13694;DHT22;6919;52.344;14.518;2022-11-03T10:17:31;12.00;99.90
13694;DHT22;6919;52.344;14.518;2022-11-03T10:20:00;12.00;1.00
13694;DHT22;6919;52.344;14.518;2022-11-03T10:22:29;12.00;1.00
13694;DHT22;6919;52.344;14.518;2022-11-03T10:25:28;12.00;1.00
13694;DHT22;6919;52.344;14.518;2022-11-03T10:28:19;12.10;1.00
13694;DHT22;6919;52.344;14.518;2022-11-03T10:30:54;12.30;99.90
13694;DHT22;6919;52.344;14.518;2022-11-03T10:33:38;12.50;99.90
13694;DHT22;6919;52.344;14.518;2022-11-03T10:36:22;12.50;52.90
13694;DHT22;6919;52.344;14.518;2022-11-03T10:38:52;12.70;1.00
13694;DHT22;6919;52.344;14.518;2022-11-03T10:41:22;12.70;1.00
13694;DHT22;6919;52.344;14.518;2022-11-03T10:44:02;12.70;1.00
13694;DHT22;6919;52.344;14.518;2022-11-03T10:46:35;12.70;1.00
13694;DHT22;6919;52.344;14.518;2022-11-03T10:49:17;12.60;1.00
13694;DHT22;6919;52.344;14.518;2022-11-03T10:51:48;12.80;1.00
13694;DHT22;6919;52.344;14.518;2022-11-03T10:54:19;12.90;1.00
13694;DHT22;6919;52.344;14.518;2022-11-03T10:56:50;12.90;1.00
13694;DHT22;6919;52.344;14.518;2022-11-03T10:59:20;12.90;1.00
13694;DHT22;6919;52.344;14.518;2022-11-03T11:02:00;13.00;1.00
13694;DHT22;6919;52.344;14.518;2022-11-03T11:04:30;12.90;1.00
13694;DHT22;6919;52.344;14.518;2022-11-03T11:06:59;12.90;1.00
13694;DHT22;6919;52.344;14.518;2022-11-03T11:09:27;12.90;1.00
13694;DHT22;6919;52.344;14.518;2022-11-03T11:12:02;13.00;1.00
13694;DHT22;6919;52.344;14.518;2022-11-03T11:14:37;13.10;1.00
13694;DHT22;6919;52.344;14.518;2022-11-03T11:17:41;13.10;1.00
13694;DHT22;6919;52.344;14.518;2022-11-03T11:20:29;13.20;1.00
13694;DHT22;6919;52.344;14.518;2022-11-03T11:26:39;13.40;1.00
13694;DHT22;6919;52.344;14.518;2022-11-03T11:29:33;13.40;1.00
13694;DHT22;6919;52.344;14.518;2022-11-03T11:38:59;13.60;1.00
13694;DHT22;6919;52.344;14.518;2022-11-03T11:42:09;13.60;1.00
13694;DHT22;6919;52.344;14.518;2022-11-03T11:44:47;13.50;1.00
13694;DHT22;6919;52.344;14.518;2022-11-03T11:47:25;13.50;1.00
13694;DHT22;6919;52.344;14.518;2022-11-03T11:50:29;13.50;4.80
13694;DHT22;6919;52.344;14.518;2022-11-03T11:53:10;13.50;1.00
13694;DHT22;6919;52.344;14.518;2022-11-03T11:55:48;13.50;11.70
13694;DHT22;6919;52.344;14.518;2022-11-03T11:58:22;13.50;1.00
13694;DHT22;6919;52.344;14.518;2022-11-03T12:00:59;13.60;1.00
13694;DHT22;6919;52.344;14.518;2022-11-03T12:03:35;13.50;1.00
13694;DHT22;6919;52.344;14.518;2022-11-03T12:06:06;13.60;1.00
13694;DHT22;6919;52.344;14.518;2022-11-03T12:08:35;13.50;1.00
13694;DHT22;6919;52.344;14.518;2022-11-03T12:11:05;13.50;1.00
13694;DHT22;6919;52.344;14.518;2022-11-03T12:13:46;13.30;1.00
13694;DHT22;6919;52.344;14.518;2022-11-03T12:16:27;13.40;1.00
13694;DHT22;6919;52.344;14.518;2022-11-03T12:18:56;13.40;1.00
13694;DHT22;6919;52.344;14.518;2022-11-03T12:21:51;13.50;1.00
13694;DHT22;6919;52.344;14.518;2022-11-03T12:24:31;13.60;1.00
13694;DHT22;6919;52.344;14.518;2022-11-03T12:30:17;13.60;1.00
13694;DHT22;6919;52.344;14.518;2022-11-03T12:32:46;13.60;99.90
13694;DHT22;6919;52.344;14.518;2022-11-03T12:35:14;13.70;99.90
13694;DHT22;6919;52.344;14.518;2022-11-03T12:37:42;13.90;99.90
13694;DHT22;6919;52.344;14.518;2022-11-03T12:40:12;14.20;99.90
13694;DHT22;6919;52.344;14.518;2022-11-03T12:42:41;14.10;99.90
13694;DHT22;6919;52.344;14.518;2022-11-03T12:45:10;14.30;99.90
13694;DHT22;6919;52.344;14.518;2022-11-03T12:47:39;14.20;99.90
13694;DHT22;6919;52.344;14.518;2022-11-03T12:50:08;14.20;99.90
13694;DHT22;6919;52.344;14.518;2022-11-03T12:52:36;14.30;99.90
13694;DHT22;6919;52.344;14.518;2022-11-03T12:55:05;14.20;99.90
13694;DHT22;6919;52.344;14.518;2022-11-03T12:57:33;14.20;99.90
13694;DHT22;6919;52.344;14.518;2022-11-03T13:00:03;14.20;99.90
13694;DHT22;6919;52.344;14.518;2022-11-03T13:02:32;14.20;99.90
13694;DHT22;6919;52.344;14.518;2022-11-03T13:05:01;14.10;99.90
13694;DHT22;6919;52.344;14.518;2022-11-03T13:07:29;13.90;99.90
13694;DHT22;6919;52.344;14.518;2022-11-03T13:10:00;13.90;1.00
13694;DHT22;6919;52.344;14.518;2022-11-03T13:12:30;14.00;99.90
13694;DHT22;6919;52.344;14.518;2022-11-03T13:14:57;14.00;99.90
13694;DHT22;6919;52.344;14.518;2022-11-03T13:17:28;13.80;99.90
13694;DHT22;6919;52.344;14.518;2022-11-03T13:20:11;13.80;1.00
13694;DHT22;6919;52.344;14.518;2022-11-03T13:22:42;13.70;99.90
13694;DHT22;6919;52.344;14.518;2022-11-03T13:25:10;13.70;99.90
13694;DHT22;6919;52.344;14.518;2022-11-03T13:27:38;13.70;99.90
13694;DHT22;6919;52.344;14.518;2022-11-03T13:30:08;13.70;99.90
13694;DHT22;6919;52.344;14.518;2022-11-03T13:32:38;13.70;1.00
13694;DHT22;6919;52.344;14.518;2022-11-03T13:35:08;13.90;99.90
13694;DHT22;6919;52.344;14.518;2022-11-03T13:37:39;14.00;99.90
13694;DHT22;6919;52.344;14.518;2022-11-03T13:40:09;14.20;99.90
13694;DHT22;6919;52.344;14.518;2022-11-03T13:42:59;14.30;99.90
13694;DHT22;6919;52.344;14.518;2022-11-03T13:45:27;14.60;99.90
13694;DHT22;6919;52.344;14.518;2022-11-03T13:47:56;14.80;99.90
13694;DHT22;6919;52.344;14.518;2022-11-03T13:50:44;15.10;99.90
13694;DHT22;6919;52.344;14.518;2022-11-03T13:53:16;15.20;99.90
13694;DHT22;6919;52.344;14.518;2022-11-03T13:56:05;15.10;99.90
13694;DHT22;6919;52.344;14.518;2022-11-03T13:58:38;14.90;99.90
13694;DHT22;6919;52.344;14.518;2022-11-03T14:01:26;14.80;99.90
13694;DHT22;6919;52.344;14.518;2022-11-03T14:03:57;14.60;99.90
13694;DHT22;6919;52.344;14.518;2022-11-03T14:06:45;14.50;99.90
13694;DHT22;6919;52.344;14.518;2022-11-03T14:09:13;14.50;99.90
13694;DHT22;6919;52.344;14.518;2022-11-03T14:11:41;14.30;99.90
13694;DHT22;6919;52.344;14.518;2022-11-03T14:14:26;14.10;99.90
13694;DHT22;6919;52.344;14.518;2022-11-03T14:16:55;13.90;99.90
13694;DHT22;6919;52.344;14.518;2022-11-03T14:19:24;13.70;99.90
13694;DHT22;6919;52.344;14.518;2022-11-03T14:22:03;13.60;1.00
13694;DHT22;6919;52.344;14.518;2022-11-03T14:24:31;13.50;1.00
13694;DHT22;6919;52.344;14.518;2022-11-03T14:27:00;13.40;1.00
13694;DHT22;6919;52.344;14.518;2022-11-03T14:29:28;13.50;1.00
13694;DHT22;6919;52.344;14.518;2022-11-03T14:31:56;13.80;1.00
13694;DHT22;6919;52.344;14.518;2022-11-03T14:34:25;13.80;99.90
13694;DHT22;6919;52.344;14.518;2022-11-03T14:36:53;13.80;99.90
13694;DHT22;6919;52.344;14.518;2022-11-03T14:39:21;13.70;1.00
13694;DHT22;6919;52.344;14.518;2022-11-03T14:41:49;13.60;1.00
13694;DHT22;6919;52.344;14.518;2022-11-03T14:44:30;13.40;1.00
13694;DHT22;6919;52.344;14.518;2022-11-03T14:47:00;13.20;1.00
13694;DHT22;6919;52.344;14.518;2022-11-03T14:49:31;13.10;1.00
13694;DHT22;6919;52.344;14.518;2022-11-03T14:52:01;12.90;1.00
13694;DHT22;6919;52.344;14.518;2022-11-03T14:54:32;12.70;1.00
13694;DHT22;6919;52.344;14.518;2022-11-03T14:57:00;12.60;1.00
13694;DHT22;6919;52.344;14.518;2022-11-03T14:59:29;12.50;1.00
13694;DHT22;6919;52.344;14.518;2022-11-03T15:01:57;12.40;1.00
13694;DHT22;6919;52.344;14.518;2022-11-03T15:04:27;12.40;1.00
13694;DHT22;6919;52.344;14.518;2022-11-03T15:06:56;12.30;1.00
13694;DHT22;6919;52.344;14.518;2022-11-03T15:09:24;12.00;1.00
13694;DHT22;6919;52.344;14.518;2022-11-03T15:11:52;12.20;1.00
13694;DHT22;6919;52.344;14.518;2022-11-03T15:14:20;12.10;1.00
13694;DHT22;6919;52.344;14.518;2022-11-03T15:16:48;12.10;1.00
13694;DHT22;6919;52.344;14.518;2022-11-03T15:19:16;12.00;1.00
13694;DHT22;6919;52.344;14.518;2022-11-03T15:21:44;11.90;1.00
13694;DHT22;6919;52.344;14.518;2022-11-03T15:24:14;11.90;1.00
13694;DHT22;6919;52.344;14.518;2022-11-03T15:27:02;11.80;74.50
13694;DHT22;6919;52.344;14.518;2022-11-03T15:29:30;11.70;99.90
13694;DHT22;6919;52.344;14.518;2022-11-03T15:31:58;11.60;99.90
13694;DHT22;6919;52.344;14.518;2022-11-03T15:34:26;11.50;99.90
13694;DHT22;6919;52.344;14.518;2022-11-03T15:36:55;11.50;99.90
13694;DHT22;6919;52.344;14.518;2022-11-03T15:39:24;11.50;99.90
13694;DHT22;6919;52.344;14.518;2022-11-03T15:41:55;11.30;1.00
13694;DHT22;6919;52.344;14.518;2022-11-03T15:44:25;11.30;1.00
13694;DHT22;6919;52.344;14.518;2022-11-03T15:46:53;11.30;1.00
13694;DHT22;6919;52.344;14.518;2022-11-03T15:49:21;11.30;1.00
13694;DHT22;6919;52.344;14.518;2022-11-03T15:51:49;11.20;1.00
13694;DHT22;6919;52.344;14.518;2022-11-03T15:54:17;11.30;97.00
13694;DHT22;6919;52.344;14.518;2022-11-03T15:56:47;11.20;99.90
13694;DHT22;6919;52.344;14.518;2022-11-03T15:59:15;11.20;99.90
13694;DHT22;6919;52.344;14.518;2022-11-03T16:01:44;11.10;99.90
13694;DHT22;6919;52.344;14.518;2022-11-03T16:04:13;11.00;1.00
13694;DHT22;6919;52.344;14.518;2022-11-03T16:06:42;10.90;1.00
13694;DHT22;6919;52.344;14.518;2022-11-03T16:09:30;10.90;1.00
13694;DHT22;6919;52.344;14.518;2022-11-03T16:11:59;10.80;82.10
13694;DHT22;6919;52.344;14.518;2022-11-03T16:14:28;10.70;99.90
13694;DHT22;6919;52.344;14.518;2022-11-03T16:16:57;10.70;1.00
13694;DHT22;6919;52.344;14.518;2022-11-03T16:19:25;10.70;1.00
13694;DHT22;6919;52.344;14.518;2022-11-03T16:21:53;10.60;44.00
13694;DHT22;6919;52.344;14.518;2022-11-03T16:24:21;10.60;99.90
13694;DHT22;6919;52.344;14.518;2022-11-03T16:27:02;10.50;1.00
13694;DHT22;6919;52.344;14.518;2022-11-03T16:29:30;10.40;1.00
13694;DHT22;6919;52.344;14.518;2022-11-03T16:31:58;10.40;99.90
13694;DHT22;6919;52.344;14.518;2022-11-03T16:34:27;10.30;99.90
13694;DHT22;6919;52.344;14.518;2022-11-03T16:36:55;10.30;1.00